createdAt,value
2022-12-28T00:02:19.343Z,85.93
2022-12-28T00:04:47.285Z,86.26
2022-12-28T00:07:14.821Z,86.78
2022-12-28T00:09:42.203Z,86.79
2022-12-28T00:12:09.660Z,86.85
2022-12-28T00:14:37.193Z,87.14
2022-12-28T00:17:04.703Z,87.33
2022-12-28T00:19:32.174Z,87.50
2022-12-28T00:21:59.677Z,87.80
2022-12-28T00:24:27.106Z,88.22
2022-12-28T00:26:56.848Z,88.31
2022-12-28T00:29:24.387Z,87.95
2022-12-28T00:31:52.059Z,87.80
2022-12-28T00:34:19.511Z,87.57
2022-12-28T00:37:11.205Z,87.30
2022-12-28T00:39:40.306Z,87.03
2022-12-28T00:42:07.976Z,86.80
2022-12-28T00:44:38.135Z,86.79
2022-12-28T00:47:05.588Z,86.82
2022-12-28T00:49:33.061Z,86.70
2022-12-28T00:52:00.600Z,86.84
2022-12-28T00:54:29.179Z,86.89
2022-12-28T00:56:56.514Z,87.10
2022-12-28T00:59:23.916Z,87.02
2022-12-28T01:01:51.427Z,87.30
2022-12-28T01:04:18.931Z,87.21
2022-12-28T01:06:46.312Z,87.21
2022-12-28T01:09:13.786Z,87.19
2022-12-28T01:11:41.220Z,87.21
2022-12-28T01:14:08.867Z,86.89
2022-12-28T01:16:37.184Z,86.41
2022-12-28T01:19:08.238Z,85.81
2022-12-28T01:21:37.052Z,85.14
2022-12-28T01:24:07.940Z,85.74
2022-12-28T01:26:36.452Z,86.52
2022-12-28T01:29:04.219Z,86.77
2022-12-28T01:31:33.382Z,87.53
2022-12-28T01:34:02.608Z,88.05
2022-12-28T01:36:32.869Z,88.46
2022-12-28T01:39:04.351Z,88.51
2022-12-28T01:41:37.764Z,88.67
2022-12-28T01:44:05.204Z,88.79
2022-12-28T01:46:51.244Z,89.19
2022-12-28T01:49:36.489Z,89.25
2022-12-28T01:52:34.886Z,89.01
2022-12-28T01:55:28.146Z,88.92
2022-12-28T01:58:07.890Z,88.69
2022-12-28T02:00:36.193Z,88.33
2022-12-28T02:03:14.244Z,88.09
2022-12-28T02:05:46.129Z,87.74
2022-12-28T02:08:45.215Z,87.71
2022-12-28T02:11:16.533Z,88.04
2022-12-28T02:13:47.327Z,88.09
2022-12-28T02:16:15.065Z,88.91
2022-12-28T02:18:46.071Z,89.09
2022-12-28T02:21:51.809Z,89.44
2022-12-28T02:25:12.169Z,89.70
2022-12-28T02:28:08.462Z,89.62
2022-12-28T02:31:09.031Z,89.14
2022-12-28T02:33:59.173Z,88.60
2022-12-28T02:36:46.056Z,88.67
2022-12-28T02:39:24.989Z,89.01
2022-12-28T02:41:54.849Z,90.05
2022-12-28T02:44:42.092Z,90.19
2022-12-28T02:47:35.139Z,89.95
2022-12-28T02:50:08.568Z,90.05
2022-12-28T02:53:02.931Z,90.10
2022-12-28T02:56:20.863Z,90.07
2022-12-28T02:59:01.696Z,90.25
2022-12-28T03:02:15.350Z,90.11
2022-12-28T03:04:57.791Z,90.34
2022-12-28T03:07:58.086Z,90.62
2022-12-28T03:10:54.780Z,90.72
2022-12-28T03:13:50.166Z,90.60
2022-12-28T03:16:28.029Z,90.54
2022-12-28T03:19:24.246Z,90.47
2022-12-28T03:22:15.908Z,90.70
2022-12-28T03:25:04.467Z,90.66
2022-12-28T03:27:53.038Z,90.93
2022-12-28T03:30:43.889Z,90.84
2022-12-28T03:33:12.723Z,90.70
2022-12-28T03:35:57.948Z,90.45
2022-12-28T03:38:39.017Z,90.30
2022-12-28T03:41:21.773Z,90.60
2022-12-28T03:44:00.540Z,90.90
2022-12-28T03:46:47.793Z,90.92
2022-12-28T03:49:15.752Z,91.01
2022-12-28T03:51:48.353Z,90.79
2022-12-28T03:54:19.875Z,90.65
2022-12-28T03:56:51.578Z,90.58
2022-12-28T03:59:23.529Z,90.57
2022-12-28T04:01:53.434Z,90.80
2022-12-28T04:04:20.989Z,90.81
2022-12-28T04:06:50.286Z,90.69
2022-12-28T04:09:17.783Z,90.89
2022-12-28T04:11:45.300Z,91.28
2022-12-28T04:14:20.740Z,91.35
2022-12-28T04:16:49.821Z,91.30
2022-12-28T04:19:19.790Z,91.57
2022-12-28T04:21:49.011Z,91.98
2022-12-28T04:24:16.437Z,91.98
2022-12-28T04:26:44.024Z,91.74
2022-12-28T04:29:12.787Z,91.56
2022-12-28T04:32:01.562Z,91.35
2022-12-28T04:34:28.949Z,91.20
2022-12-28T04:37:03.360Z,91.33
2022-12-28T04:39:54.687Z,91.74
2022-12-28T04:42:18.378Z,91.78
2022-12-28T04:44:45.922Z,91.79
2022-12-28T04:47:13.623Z,91.78
2022-12-28T04:49:41.038Z,91.63
2022-12-28T04:52:08.469Z,91.42
2022-12-28T04:54:35.994Z,91.54
2022-12-28T04:57:03.521Z,91.45
2022-12-28T04:59:30.931Z,91.37
2022-12-28T05:01:58.587Z,91.38
2022-12-28T05:04:26.384Z,91.69
2022-12-28T05:06:53.769Z,91.83
2022-12-28T05:09:21.195Z,91.77
2022-12-28T05:11:49.698Z,91.76
2022-12-28T05:14:17.050Z,91.84
2022-12-28T05:16:45.791Z,91.76
2022-12-28T05:19:13.336Z,91.95
2022-12-28T05:21:40.825Z,91.99
2022-12-28T05:24:08.455Z,91.89
2022-12-28T05:26:36.171Z,92.14
2022-12-28T05:29:03.639Z,92.35
2022-12-28T05:31:31.113Z,92.41
2022-12-28T05:33:58.709Z,92.24
2022-12-28T05:36:27.603Z,91.97
2022-12-28T05:38:56.796Z,91.94
2022-12-28T05:41:28.423Z,91.95
2022-12-28T05:43:58.780Z,92.08
2022-12-28T05:46:33.118Z,92.60
2022-12-28T05:49:01.911Z,92.56
2022-12-28T05:51:32.756Z,92.48
2022-12-28T05:54:04.430Z,92.50
2022-12-28T05:56:33.641Z,92.64
2022-12-28T05:59:05.695Z,92.66
2022-12-28T06:01:39.596Z,92.66
2022-12-28T06:04:18.202Z,92.75
2022-12-28T06:06:47.245Z,92.75
2022-12-28T06:09:15.203Z,92.83
2022-12-28T06:11:43.342Z,92.68
2022-12-28T06:14:10.870Z,92.52
2022-12-28T06:16:42.431Z,92.58
2022-12-28T06:19:12.450Z,92.51
2022-12-28T06:21:40.721Z,92.53
2022-12-28T06:24:09.260Z,92.52
2022-12-28T06:26:39.130Z,92.55
2022-12-28T06:29:07.338Z,92.75
2022-12-28T06:31:39.179Z,92.74
2022-12-28T06:34:09.361Z,92.88
2022-12-28T06:36:40.307Z,92.88
2022-12-28T06:39:14.367Z,92.88
2022-12-28T06:41:42.311Z,92.86
2022-12-28T06:44:13.171Z,92.80
2022-12-28T06:46:40.947Z,92.74
2022-12-28T06:49:08.311Z,93.34
2022-12-28T06:51:42.375Z,93.78
2022-12-28T06:54:10.803Z,93.66
2022-12-28T06:56:39.309Z,91.56
2022-12-28T06:59:06.859Z,88.41
2022-12-28T07:01:38.815Z,83.19
2022-12-28T07:04:08.944Z,75.92
2022-12-28T07:06:43.389Z,70.55
2022-12-28T07:09:15.457Z,66.56
2022-12-28T07:11:45.191Z,67.01
2022-12-28T07:14:13.030Z,67.29
2022-12-28T07:19:07.315Z,68.18
2022-12-28T07:21:38.689Z,71.14
2022-12-28T07:24:07.615Z,74.69
2022-12-28T07:26:37.726Z,77.85
2022-12-28T07:29:07.516Z,80.75
2022-12-28T07:31:44.863Z,82.13
2022-12-28T07:34:15.415Z,82.23
2022-12-28T07:36:43.809Z,83.34
2022-12-28T07:39:12.748Z,83.38
2022-12-28T07:41:40.331Z,83.04
2022-12-28T07:44:07.831Z,83.21
2022-12-28T07:46:36.990Z,83.10
2022-12-28T07:49:05.151Z,82.73
2022-12-28T07:51:38.452Z,83.42
2022-12-28T07:54:07.072Z,82.26
2022-12-28T07:59:04.911Z,74.40
2022-12-28T08:01:35.735Z,66.90
2022-12-28T08:04:10.280Z,60.93
2022-12-28T08:06:41.834Z,53.63
2022-12-28T08:09:12.439Z,54.74
2022-12-28T08:11:43.506Z,55.18
2022-12-28T08:14:12.384Z,52.98
2022-12-28T08:16:43.319Z,49.61
2022-12-28T08:19:10.927Z,45.31
2022-12-28T08:21:42.976Z,43.33
2022-12-28T08:24:19.194Z,42.36
2022-12-28T08:26:48.830Z,37.12
2022-12-28T08:29:22.337Z,37.56
2022-12-28T08:31:50.683Z,36.94
2022-12-28T08:34:27.095Z,35.68
2022-12-28T08:36:56.322Z,40.35
2022-12-28T08:39:23.821Z,41.28
2022-12-28T08:41:51.337Z,40.96
2022-12-28T08:44:19.064Z,41.23
2022-12-28T08:46:46.627Z,42.90
2022-12-28T08:49:14.771Z,43.53
2022-12-28T08:51:43.175Z,46.99
2022-12-28T08:54:14.399Z,50.15
2022-12-28T08:56:45.607Z,50.04
2022-12-28T08:59:18.897Z,48.42
2022-12-28T09:01:47.868Z,47.25
2022-12-28T09:04:21.607Z,44.61
2022-12-28T09:06:50.092Z,44.68
2022-12-28T09:09:22.314Z,40.61
2022-12-28T09:11:52.806Z,38.96
2022-12-28T09:14:24.282Z,39.70
2022-12-28T09:16:53.872Z,36.86
2022-12-28T09:19:21.527Z,33.95
2022-12-28T09:21:49.245Z,33.20
2022-12-28T09:24:16.845Z,33.98
2022-12-28T09:26:44.541Z,32.32
2022-12-28T09:29:14.017Z,33.44
2022-12-28T09:31:42.212Z,32.78
2022-12-28T09:37:01.202Z,28.98
2022-12-28T09:39:29.523Z,26.50
2022-12-28T09:42:27.087Z,25.78
2022-12-28T09:45:09.089Z,26.73
2022-12-28T09:47:53.078Z,26.71
2022-12-28T09:50:29.897Z,28.93
2022-12-28T09:53:16.273Z,25.86
2022-12-28T09:56:16.608Z,26.25
2022-12-28T09:58:48.096Z,26.50
2022-12-28T10:01:19.551Z,28.84
2022-12-28T10:03:48.462Z,28.59
2022-12-28T10:06:25.609Z,27.64
2022-12-28T10:08:56.892Z,30.06
2022-12-28T10:11:29.766Z,30.41
2022-12-28T10:14:01.324Z,30.70
2022-12-28T10:16:32.976Z,33.76
2022-12-28T10:19:05.484Z,31.78
2022-12-28T10:22:04.234Z,30.10
2022-12-28T10:24:35.474Z,32.51
2022-12-28T10:27:10.471Z,31.68
2022-12-28T10:29:40.620Z,35.03
2022-12-28T10:32:10.486Z,36.52
2022-12-28T10:34:53.724Z,35.05
2022-12-28T10:37:22.037Z,33.25
2022-12-28T10:39:56.636Z,35.46
2022-12-28T10:42:38.616Z,36.30
2022-12-28T10:45:18.324Z,35.19
2022-12-28T10:47:53.202Z,35.71
2022-12-28T10:50:50.202Z,35.36
2022-12-28T10:53:33.780Z,32.77
2022-12-28T10:56:28.820Z,33.97
2022-12-28T10:59:11.008Z,34.08
2022-12-28T11:01:40.370Z,35.89
2022-12-28T11:04:26.651Z,34.37
2022-12-28T11:07:01.215Z,36.91
2022-12-28T11:09:37.570Z,35.09
2022-12-28T11:12:29.040Z,36.25
2022-12-28T11:14:56.622Z,35.16
2022-12-28T11:17:27.244Z,36.51
2022-12-28T11:20:06.700Z,38.42
2022-12-28T11:22:34.628Z,41.09
2022-12-28T11:25:02.733Z,40.53
2022-12-28T11:27:30.200Z,41.35
2022-12-28T11:29:57.952Z,36.73
2022-12-28T11:32:37.385Z,35.83
2022-12-28T11:35:06.976Z,35.74
2022-12-28T11:37:34.441Z,38.53
2022-12-28T11:40:01.877Z,40.28
2022-12-28T11:42:40.686Z,41.21
2022-12-28T11:45:56.091Z,41.15
2022-12-28T11:48:42.075Z,42.07
2022-12-28T11:51:23.501Z,40.46
2022-12-28T11:53:58.358Z,42.29
2022-12-28T11:56:47.145Z,44.55
2022-12-28T11:59:27.449Z,43.71
2022-12-28T12:02:01.108Z,47.12
2022-12-28T12:04:34.918Z,51.28
2022-12-28T12:07:02.723Z,53.57
2022-12-28T12:09:38.218Z,54.42
2022-12-28T12:12:18.054Z,55.54
2022-12-28T12:15:12.474Z,57.34
2022-12-28T12:17:49.830Z,59.86
2022-12-28T12:20:49.324Z,59.79
2022-12-28T12:24:26.802Z,60.87
2022-12-28T12:26:58.829Z,60.16
2022-12-28T12:29:43.384Z,59.03
2022-12-28T12:32:25.651Z,55.77
2022-12-28T12:35:04.725Z,58.23
2022-12-28T12:37:56.572Z,59.70
2022-12-28T12:41:00.124Z,58.69
2022-12-28T12:44:10.924Z,60.76
2022-12-28T12:47:25.821Z,61.61
2022-12-28T12:50:19.367Z,63.61
2022-12-28T12:53:50.618Z,62.63
2022-12-28T12:56:50.556Z,63.45
2022-12-28T13:00:05.056Z,63.48
2022-12-28T13:03:02.706Z,63.06
2022-12-28T13:05:31.045Z,63.51
2022-12-28T13:08:01.072Z,62.29
2022-12-28T13:10:36.398Z,63.81
2022-12-28T13:13:05.695Z,63.28
2022-12-28T13:15:33.560Z,62.76
2022-12-28T13:18:44.083Z,63.57
2022-12-28T13:21:12.342Z,63.36
2022-12-28T13:23:45.551Z,63.07
2022-12-28T13:26:16.266Z,63.32
2022-12-28T13:28:58.516Z,62.93
2022-12-28T13:31:34.860Z,62.61
2022-12-28T13:34:25.477Z,62.92
2022-12-28T13:36:59.540Z,62.52
2022-12-28T13:39:41.514Z,63.16
2022-12-28T13:42:19.717Z,63.09
2022-12-28T13:44:55.248Z,62.26
2022-12-28T13:47:47.737Z,62.81
2022-12-28T13:50:25.167Z,61.73
2022-12-28T13:53:08.570Z,61.41
2022-12-28T13:55:48.937Z,60.76
2022-12-28T13:58:28.382Z,61.38
2022-12-28T14:01:00.022Z,59.70
2022-12-28T14:03:30.405Z,60.06
2022-12-28T14:06:02.138Z,59.87
2022-12-28T14:08:35.133Z,60.16
2022-12-28T14:11:04.682Z,59.72
2022-12-28T14:13:34.309Z,59.58
2022-12-28T14:16:04.001Z,59.70
2022-12-28T14:18:33.714Z,59.97
2022-12-28T14:21:02.525Z,59.79
2022-12-28T14:23:34.099Z,59.88
2022-12-28T14:26:19.528Z,59.77
2022-12-28T14:28:55.322Z,59.90
2022-12-28T14:31:29.989Z,59.11
2022-12-28T14:34:05.030Z,59.04
2022-12-28T14:36:48.978Z,59.28
2022-12-28T14:39:25.225Z,59.95
2022-12-28T14:41:53.589Z,60.25
2022-12-28T14:44:30.484Z,60.83
2022-12-28T14:46:58.899Z,60.52
2022-12-28T14:49:29.183Z,60.71
2022-12-28T14:52:08.766Z,61.31
2022-12-28T14:54:55.653Z,61.33
2022-12-28T14:57:44.325Z,61.82
2022-12-28T15:00:22.790Z,61.42
2022-12-28T15:02:51.114Z,61.40
2022-12-28T15:05:33.519Z,61.11
2022-12-28T15:08:02.065Z,61.54
2022-12-28T15:10:29.456Z,61.63
2022-12-28T15:12:56.836Z,61.52
2022-12-28T15:15:24.257Z,62.14
2022-12-28T15:17:51.727Z,62.42
2022-12-28T15:20:19.199Z,63.71
2022-12-28T15:22:49.267Z,64.87
2022-12-28T15:25:16.729Z,66.28
2022-12-28T15:27:44.271Z,66.88
2022-12-28T15:30:18.272Z,66.96
2022-12-28T15:32:47.968Z,66.96
2022-12-28T15:35:15.617Z,67.39
2022-12-28T15:37:43.085Z,68.01
2022-12-28T15:40:11.802Z,68.17
2022-12-28T15:42:40.788Z,68.41
2022-12-28T15:45:09.185Z,68.62
2022-12-28T15:47:36.833Z,69.09
2022-12-28T15:50:05.565Z,68.50
2022-12-28T15:52:34.203Z,68.58
2022-12-28T15:55:01.971Z,68.53
2022-12-28T15:57:29.965Z,68.71
2022-12-28T15:59:57.644Z,68.88
2022-12-28T16:02:25.210Z,68.63
2022-12-28T16:04:52.756Z,69.09
2022-12-28T16:07:20.327Z,69.26
2022-12-28T16:09:47.851Z,69.05
2022-12-28T16:12:17.953Z,68.90
2022-12-28T16:14:47.058Z,69.11
2022-12-28T16:17:15.449Z,68.72
2022-12-28T16:19:42.897Z,68.47
2022-12-28T16:22:10.474Z,69.51
2022-12-28T16:24:37.946Z,71.14
2022-12-28T16:27:05.576Z,71.10
2022-12-28T16:29:33.191Z,71.72
2022-12-28T16:32:01.713Z,72.58
2022-12-28T16:34:29.086Z,72.59
2022-12-28T16:36:59.302Z,72.87
2022-12-28T16:39:29.685Z,73.57
2022-12-28T16:41:58.341Z,73.93
2022-12-28T16:44:29.775Z,73.81
2022-12-28T16:46:58.579Z,73.91
2022-12-28T16:49:27.750Z,73.95
2022-12-28T16:51:56.306Z,73.51
2022-12-28T16:54:25.267Z,73.83
2022-12-28T16:56:53.430Z,74.37
2022-12-28T16:59:27.889Z,74.05
2022-12-28T17:01:57.608Z,74.20
2022-12-28T17:04:25.025Z,73.47
2022-12-28T17:06:52.742Z,73.15
2022-12-28T17:09:20.966Z,73.66
2022-12-28T17:11:50.717Z,74.07
2022-12-28T17:14:35.717Z,74.57
2022-12-28T17:17:06.967Z,74.86
2022-12-28T17:19:34.627Z,75.02
2022-12-28T17:22:04.115Z,74.85
2022-12-28T17:24:31.621Z,75.05
2022-12-28T17:27:05.215Z,75.23
2022-12-28T17:29:37.059Z,75.26
2022-12-28T17:32:06.236Z,75.64
2022-12-28T17:34:33.905Z,76.25
2022-12-28T17:37:01.355Z,75.73
2022-12-28T17:39:31.107Z,76.12
2022-12-28T17:42:02.161Z,76.17
2022-12-28T17:44:29.744Z,76.09
2022-12-28T17:46:57.165Z,76.40
2022-12-28T17:49:24.604Z,76.56
2022-12-28T17:51:52.213Z,76.64
2022-12-28T17:54:19.627Z,76.80
2022-12-28T17:56:47.124Z,76.83
2022-12-28T17:59:16.670Z,77.46
2022-12-28T18:01:44.375Z,78.02
2022-12-28T18:04:12.368Z,79.01
2022-12-28T18:06:40.610Z,79.74
2022-12-28T18:09:08.069Z,80.17
2022-12-28T18:11:35.564Z,80.61
2022-12-28T18:14:03.052Z,81.10
2022-12-28T18:16:30.618Z,81.18
2022-12-28T18:18:58.039Z,81.49
2022-12-28T18:21:25.542Z,82.06
2022-12-28T18:23:53.020Z,82.04
2022-12-28T18:26:26.512Z,82.11
2022-12-28T18:28:56.172Z,82.12
2022-12-28T18:31:25.261Z,82.25
2022-12-28T18:33:53.575Z,82.23
2022-12-28T18:36:21.266Z,82.80
2022-12-28T18:38:49.275Z,83.00
2022-12-28T18:41:20.792Z,83.07
2022-12-28T18:43:51.402Z,82.91
2022-12-28T18:46:19.086Z,82.80
2022-12-28T18:48:46.607Z,82.34
2022-12-28T18:51:17.548Z,82.16
2022-12-28T18:53:45.699Z,82.08
2022-12-28T18:56:16.952Z,81.94
2022-12-28T18:58:49.826Z,81.83
2022-12-28T19:02:04.756Z,81.98
2022-12-28T19:04:13.008Z,82.24
2022-12-28T19:06:41.588Z,82.18
2022-12-28T19:09:10.517Z,82.19
2022-12-28T19:11:39.790Z,82.31
2022-12-28T19:14:10.628Z,82.35
2022-12-28T19:16:38.615Z,82.60
2022-12-28T19:19:06.096Z,83.19
2022-12-28T19:21:37.183Z,83.70
2022-12-28T19:24:15.560Z,84.05
2022-12-28T19:26:43.839Z,84.29
2022-12-28T19:29:15.421Z,84.49
2022-12-28T19:31:43.477Z,84.52
2022-12-28T19:34:10.930Z,84.62
2022-12-28T19:36:38.423Z,84.62
2022-12-28T19:39:05.905Z,84.69
2022-12-28T19:41:35.961Z,84.93
2022-12-28T19:44:05.701Z,84.89
2022-12-28T19:46:33.129Z,85.10
2022-12-28T19:49:04.108Z,85.15
2022-12-28T19:51:32.819Z,85.21
2022-12-28T19:54:02.137Z,85.46
2022-12-28T19:56:29.957Z,85.60
2022-12-28T19:59:04.999Z,85.87
2022-12-28T20:01:35.105Z,85.89
2022-12-28T20:04:08.843Z,85.98
2022-12-28T20:06:42.615Z,85.93
2022-12-28T20:09:11.736Z,86.07
2022-12-28T20:11:40.638Z,85.99
2022-12-28T20:14:12.709Z,86.12
2022-12-28T20:16:42.284Z,86.06
2022-12-28T20:19:12.865Z,86.23
2022-12-28T20:21:41.907Z,86.25
2022-12-28T20:24:12.683Z,86.29
2022-12-28T20:26:40.331Z,86.20
2022-12-28T20:29:07.840Z,86.14
2022-12-28T20:31:35.457Z,86.30
2022-12-28T20:34:02.995Z,86.23
2022-12-28T20:36:34.072Z,86.67
2022-12-28T20:39:07.290Z,86.69
2022-12-28T20:41:56.244Z,86.65
2022-12-28T20:44:32.415Z,86.20
2022-12-28T20:47:04.741Z,86.63
2022-12-28T20:49:32.422Z,86.74
2022-12-28T20:52:02.005Z,87.44
2022-12-28T20:54:29.480Z,87.66
2022-12-28T20:56:57.176Z,87.77
2022-12-28T20:59:25.648Z,87.86
2022-12-28T21:01:53.584Z,88.18
2022-12-28T21:04:23.987Z,88.24
2022-12-28T21:06:53.673Z,88.14
2022-12-28T21:09:21.589Z,88.13
2022-12-28T21:11:49.055Z,88.32
2022-12-28T21:14:16.611Z,88.55
2022-12-28T21:16:44.217Z,88.47
2022-12-28T21:19:11.689Z,88.37
2022-12-28T21:21:41.592Z,88.50
2022-12-28T21:24:09.191Z,88.78
2022-12-28T21:26:37.242Z,89.05
2022-12-28T21:29:04.711Z,88.96
2022-12-28T21:31:32.160Z,88.86
2022-12-28T21:33:59.572Z,88.77
2022-12-28T21:36:27.246Z,88.84
2022-12-28T21:38:54.687Z,88.84
2022-12-28T21:41:41.328Z,88.73
2022-12-28T21:44:12.619Z,88.59
2022-12-28T21:46:40.942Z,88.27
2022-12-28T21:49:09.242Z,88.15
2022-12-28T21:51:40.617Z,88.00
2022-12-28T21:54:13.841Z,87.89
2022-12-28T21:56:43.991Z,87.72
2022-12-28T21:59:13.523Z,87.80
2022-12-28T22:02:01.426Z,87.78
2022-12-28T22:04:47.962Z,87.77
2022-12-28T22:07:18.508Z,87.94
2022-12-28T22:10:04.951Z,87.95
2022-12-28T22:12:35.805Z,88.24
2022-12-28T22:15:32.700Z,88.58
2022-12-28T22:18:12.763Z,88.50
2022-12-28T22:20:47.609Z,88.39
2022-12-28T22:23:15.836Z,88.51
2022-12-28T22:25:43.342Z,88.63
2022-12-28T22:28:12.937Z,88.85
2022-12-28T22:30:40.341Z,88.70
2022-12-28T22:33:08.342Z,88.92
2022-12-28T22:35:35.937Z,89.03
2022-12-28T22:38:03.372Z,89.01
2022-12-28T22:40:31.016Z,88.89
2022-12-28T22:42:58.466Z,88.80
2022-12-28T22:45:26.472Z,88.42
2022-12-28T22:47:59.518Z,88.19
2022-12-28T22:50:28.236Z,88.11
2022-12-28T22:52:56.528Z,88.01
2022-12-28T22:55:23.994Z,87.97
2022-12-28T22:57:51.380Z,87.83
2022-12-28T23:00:18.886Z,88.09
2022-12-28T23:02:46.836Z,88.54
2022-12-28T23:05:14.542Z,88.91
2022-12-28T23:07:41.930Z,88.80
2022-12-28T23:10:10.404Z,88.53
2022-12-28T23:12:38.018Z,88.34
2022-12-28T23:15:20.013Z,88.20
2022-12-28T23:17:49.192Z,88.31
2022-12-28T23:20:36.309Z,88.31
2022-12-28T23:23:22.967Z,88.49
2022-12-28T23:26:08.941Z,88.35
2022-12-28T23:28:36.416Z,88.50
2022-12-28T23:31:04.393Z,88.91
2022-12-28T23:33:31.839Z,88.92
2022-12-28T23:36:04.292Z,88.00
2022-12-28T23:38:32.920Z,87.16
2022-12-28T23:41:24.812Z,87.36
2022-12-28T23:43:52.285Z,88.47
2022-12-28T23:46:19.806Z,88.80
2022-12-28T23:48:47.445Z,90.25
2022-12-28T23:51:17.118Z,90.23
2022-12-28T23:53:44.959Z,90.22
2022-12-28T23:56:12.585Z,90.32
2022-12-28T23:58:40.071Z,90.20
